This is the latest recevied weather packets stored in our database for station/object W4TBD-13. If no packets are shown the sender has not sent any weather packets the latest 10 day(s).
| Time | Temp. | Humidity | Pressure | Rain* | Wind** | Luminosity | Snow |
|---|---|---|---|---|---|---|---|
| 1778014505 | 27.78° C | 34% | 1002.1 hPa | 0 mm | - | 0 W/m² | - |
| 1778013905 | 27.78° C | 34% | 1002.1 hPa | 0 mm | - | 0 W/m² | - |
| 1778013005 | 27.78° C | 34% | 1002 hPa | 0 mm | - | 0 W/m² | - |
| 1778010005 | 28.89° C | 32% | 1002.6 hPa | 0 mm | - | 0 W/m² | - |
| 1778009405 | 28.89° C | 35% | 1002.6 hPa | 0 mm | - | 0 W/m² | - |
| 1778008204 | 28.33° C | 34% | 1003 hPa | 0 mm | - | 0 W/m² | - |
| 1778005205 | 28.33° C | 36% | 1003.5 hPa | 0 mm | - | 0 W/m² | - |
| 1778004606 | 27.78° C | 36% | 1003.7 hPa | 0 mm | - | 0 W/m² | - |
| 1777998905 | 27.22° C | 44% | 1004.5 hPa | 0 mm | - | 656 W/m² | - |
| 1777997105 | 26.11° C | 45% | 1005.1 hPa | 0 mm | - | 610 W/m² | - |
| 1777996204 | 25.56° C | 48% | 1005.4 hPa | 0 mm | - | 622 W/m² | - |
| 1777992604 | 23.33° C | 53% | 1005.1 hPa | 0 mm | - | 674 W/m² | - |
| 1777991704 | 22.78° C | 54% | 1004.9 hPa | 0 mm | - | 683 W/m² | - |
| 1777989605 | 21.67° C | 58% | 1005.1 hPa | 0 mm | - | 650 W/m² | - |
| 1777986305 | 18.89° C | 65% | 1005.3 hPa | 0 mm | - | 383 W/m² | - |
| 1777984504 | 17.22° C | 72% | 1005.3 hPa | 0 mm | - | 248 W/m² | - |
| 1777984204 | 17.22° C | 73% | 1005.3 hPa | 0 mm | - | 220 W/m² | - |
| 1777981204 | 15° C | 80% | 1004.9 hPa | 0 mm | - | 25 W/m² | - |
| 1777980605 | 14.44° C | 81% | 1004.9 hPa | 0 mm | - | 10 W/m² | - |
| 1777979405 | 13.89° C | 83% | 1004.7 hPa | 0 mm | - | 15 W/m² | - |
| 1777978804 | 13.89° C | 83% | 1004.9 hPa | 0 mm | - | 12 W/m² | - |
| 1777977305 | 13.33° C | 83% | 1004.4 hPa | 0 mm | - | 5 W/m² | - |
| 1777975504 | 13.89° C | 82% | 1004.3 hPa | 0 mm | - | 0 W/m² | - |
| 1777973404 | 14.44° C | 79% | 1004.3 hPa | 0 mm | - | 0 W/m² | - |
| 1777968304 | 15.56° C | 73% | 1004 hPa | 0 mm | - | 0 W/m² | - |
* Rain latest hour (hover to see other rain measurements)
** Current wind speed in m/s (hover to see current wind gust speed)